sensor_id;sensor_type;location;lat;lon;timestamp;P1;durP1;ratioP1;P2;durP2;ratioP2
14776;SDS011;7480;43.124;25.686;2024-03-02T00:00:35;22.93;;;14.63;;
14776;SDS011;7480;43.124;25.686;2024-03-02T00:03:02;22.83;;;13.60;;
14776;SDS011;7480;43.124;25.686;2024-03-02T00:05:29;21.60;;;13.47;;
14776;SDS011;7480;43.124;25.686;2024-03-02T00:07:59;26.13;;;14.00;;
14776;SDS011;7480;43.124;25.686;2024-03-02T00:10:26;24.70;;;14.33;;
14776;SDS011;7480;43.124;25.686;2024-03-02T00:12:58;22.40;;;12.60;;
14776;SDS011;7480;43.124;25.686;2024-03-02T00:18:10;22.40;;;14.00;;
14776;SDS011;7480;43.124;25.686;2024-03-02T00:20:38;21.90;;;14.00;;
14776;SDS011;7480;43.124;25.686;2024-03-02T00:23:06;22.87;;;14.13;;
14776;SDS011;7480;43.124;25.686;2024-03-02T00:25:43;19.13;;;13.03;;
14776;SDS011;7480;43.124;25.686;2024-03-02T00:28:13;20.75;;;13.45;;
14776;SDS011;7480;43.124;25.686;2024-03-02T00:31:26;24.93;;;13.17;;
14776;SDS011;7480;43.124;25.686;2024-03-02T00:33:30;29.10;;;13.50;;
14776;SDS011;7480;43.124;25.686;2024-03-02T00:35:56;21.73;;;12.63;;
14776;SDS011;7480;43.124;25.686;2024-03-02T00:38:23;25.67;;;12.90;;
14776;SDS011;7480;43.124;25.686;2024-03-02T00:40:50;21.57;;;13.13;;
14776;SDS011;7480;43.124;25.686;2024-03-02T00:43:31;23.03;;;12.37;;
14776;SDS011;7480;43.124;25.686;2024-03-02T00:46:04;24.93;;;12.93;;
14776;SDS011;7480;43.124;25.686;2024-03-02T00:48:30;24.07;;;13.03;;
14776;SDS011;7480;43.124;25.686;2024-03-02T00:51:03;22.00;;;13.10;;
14776;SDS011;7480;43.124;25.686;2024-03-02T00:53:33;22.97;;;13.47;;
14776;SDS011;7480;43.124;25.686;2024-03-02T00:56:00;27.37;;;14.77;;
14776;SDS011;7480;43.124;25.686;2024-03-02T00:58:27;29.97;;;14.90;;
14776;SDS011;7480;43.124;25.686;2024-03-02T01:00:53;24.07;;;14.40;;
14776;SDS011;7480;43.124;25.686;2024-03-02T01:03:20;28.47;;;15.03;;
14776;SDS011;7480;43.124;25.686;2024-03-02T01:05:47;30.63;;;14.87;;
14776;SDS011;7480;43.124;25.686;2024-03-02T01:08:13;25.70;;;14.27;;
14776;SDS011;7480;43.124;25.686;2024-03-02T01:10:41;24.87;;;14.40;;
14776;SDS011;7480;43.124;25.686;2024-03-02T01:13:07;28.60;;;14.93;;
14776;SDS011;7480;43.124;25.686;2024-03-02T01:15:34;22.13;;;14.00;;
14776;SDS011;7480;43.124;25.686;2024-03-02T01:18:00;24.80;;;14.80;;
14776;SDS011;7480;43.124;25.686;2024-03-02T01:20:27;24.53;;;14.10;;
14776;SDS011;7480;43.124;25.686;2024-03-02T01:22:53;20.17;;;13.53;;
14776;SDS011;7480;43.124;25.686;2024-03-02T01:25:20;30.20;;;15.43;;
14776;SDS011;7480;43.124;25.686;2024-03-02T01:27:47;32.13;;;14.40;;
14776;SDS011;7480;43.124;25.686;2024-03-02T01:30:15;24.90;;;14.07;;
14776;SDS011;7480;43.124;25.686;2024-03-02T01:32:42;26.87;;;14.47;;
14776;SDS011;7480;43.124;25.686;2024-03-02T01:35:09;26.27;;;13.90;;
14776;SDS011;7480;43.124;25.686;2024-03-02T01:37:36;26.20;;;13.83;;
14776;SDS011;7480;43.124;25.686;2024-03-02T01:40:02;24.47;;;13.30;;
14776;SDS011;7480;43.124;25.686;2024-03-02T01:42:29;30.57;;;14.77;;
14776;SDS011;7480;43.124;25.686;2024-03-02T01:44:57;21.23;;;13.70;;
14776;SDS011;7480;43.124;25.686;2024-03-02T01:47:23;29.53;;;14.10;;
14776;SDS011;7480;43.124;25.686;2024-03-02T01:49:50;23.47;;;13.47;;
14776;SDS011;7480;43.124;25.686;2024-03-02T01:52:17;26.87;;;14.30;;
14776;SDS011;7480;43.124;25.686;2024-03-02T01:54:43;25.07;;;13.70;;
14776;SDS011;7480;43.124;25.686;2024-03-02T01:57:10;28.63;;;13.63;;
14776;SDS011;7480;43.124;25.686;2024-03-02T01:59:37;26.53;;;13.77;;
14776;SDS011;7480;43.124;25.686;2024-03-02T02:02:03;21.17;;;12.57;;
14776;SDS011;7480;43.124;25.686;2024-03-02T02:04:30;25.27;;;13.00;;
14776;SDS011;7480;43.124;25.686;2024-03-02T02:06:57;25.97;;;12.37;;
14776;SDS011;7480;43.124;25.686;2024-03-02T02:09:24;21.20;;;12.87;;
14776;SDS011;7480;43.124;25.686;2024-03-02T02:11:51;19.27;;;11.50;;
14776;SDS011;7480;43.124;25.686;2024-03-02T02:14:18;25.97;;;12.87;;
14776;SDS011;7480;43.124;25.686;2024-03-02T02:16:45;22.73;;;12.53;;
14776;SDS011;7480;43.124;25.686;2024-03-02T02:19:12;19.90;;;12.10;;
14776;SDS011;7480;43.124;25.686;2024-03-02T02:21:42;29.13;;;16.23;;
14776;SDS011;7480;43.124;25.686;2024-03-02T02:24:08;25.17;;;13.50;;
14776;SDS011;7480;43.124;25.686;2024-03-02T02:26:35;21.87;;;12.77;;
14776;SDS011;7480;43.124;25.686;2024-03-02T02:29:01;23.53;;;11.83;;
14776;SDS011;7480;43.124;25.686;2024-03-02T02:31:36;22.63;;;12.03;;
14776;SDS011;7480;43.124;25.686;2024-03-02T02:34:02;17.80;;;11.43;;
14776;SDS011;7480;43.124;25.686;2024-03-02T02:36:29;23.90;;;12.97;;
14776;SDS011;7480;43.124;25.686;2024-03-02T02:38:56;24.77;;;12.23;;
14776;SDS011;7480;43.124;25.686;2024-03-02T02:41:23;25.63;;;12.40;;
14776;SDS011;7480;43.124;25.686;2024-03-02T02:43:49;21.50;;;12.43;;
14776;SDS011;7480;43.124;25.686;2024-03-02T02:46:16;24.17;;;12.50;;
14776;SDS011;7480;43.124;25.686;2024-03-02T02:48:42;21.50;;;12.23;;
14776;SDS011;7480;43.124;25.686;2024-03-02T02:51:09;17.00;;;11.50;;
14776;SDS011;7480;43.124;25.686;2024-03-02T02:53:35;20.07;;;11.90;;
14776;SDS011;7480;43.124;25.686;2024-03-02T02:56:06;17.53;;;11.70;;
14776;SDS011;7480;43.124;25.686;2024-03-02T02:58:33;22.33;;;12.73;;
14776;SDS011;7480;43.124;25.686;2024-03-02T03:01:00;19.57;;;12.13;;
14776;SDS011;7480;43.124;25.686;2024-03-02T03:03:26;21.07;;;11.93;;
14776;SDS011;7480;43.124;25.686;2024-03-02T03:05:53;21.40;;;11.97;;
14776;SDS011;7480;43.124;25.686;2024-03-02T03:08:19;24.77;;;12.40;;
14776;SDS011;7480;43.124;25.686;2024-03-02T03:10:46;17.23;;;11.20;;
14776;SDS011;7480;43.124;25.686;2024-03-02T03:13:13;18.93;;;11.70;;
14776;SDS011;7480;43.124;25.686;2024-03-02T03:15:39;20.57;;;11.13;;
14776;SDS011;7480;43.124;25.686;2024-03-02T03:18:06;18.60;;;11.30;;
14776;SDS011;7480;43.124;25.686;2024-03-02T03:20:34;19.53;;;11.27;;
14776;SDS011;7480;43.124;25.686;2024-03-02T03:23:00;17.50;;;11.50;;
14776;SDS011;7480;43.124;25.686;2024-03-02T03:25:27;23.43;;;12.17;;
14776;SDS011;7480;43.124;25.686;2024-03-02T03:27:53;22.27;;;11.80;;
14776;SDS011;7480;43.124;25.686;2024-03-02T03:30:20;19.13;;;11.43;;
14776;SDS011;7480;43.124;25.686;2024-03-02T03:32:47;20.10;;;12.07;;
14776;SDS011;7480;43.124;25.686;2024-03-02T03:35:16;21.13;;;11.87;;
14776;SDS011;7480;43.124;25.686;2024-03-02T03:37:44;20.53;;;11.47;;
14776;SDS011;7480;43.124;25.686;2024-03-02T03:40:11;20.00;;;11.77;;
14776;SDS011;7480;43.124;25.686;2024-03-02T03:42:38;20.53;;;12.70;;
14776;SDS011;7480;43.124;25.686;2024-03-02T03:45:06;18.37;;;11.03;;
14776;SDS011;7480;43.124;25.686;2024-03-02T03:47:33;26.13;;;11.53;;
14776;SDS011;7480;43.124;25.686;2024-03-02T03:49:59;20.17;;;11.77;;
14776;SDS011;7480;43.124;25.686;2024-03-02T03:52:26;22.20;;;11.90;;
14776;SDS011;7480;43.124;25.686;2024-03-02T03:54:52;20.25;;;10.77;;
14776;SDS011;7480;43.124;25.686;2024-03-02T03:57:19;20.13;;;11.63;;
14776;SDS011;7480;43.124;25.686;2024-03-02T03:59:46;24.20;;;12.00;;
14776;SDS011;7480;43.124;25.686;2024-03-02T04:02:13;21.80;;;11.40;;
14776;SDS011;7480;43.124;25.686;2024-03-02T04:04:39;22.40;;;11.17;;
14776;SDS011;7480;43.124;25.686;2024-03-02T04:07:06;17.50;;;11.57;;
14776;SDS011;7480;43.124;25.686;2024-03-02T04:09:32;22.50;;;12.40;;
14776;SDS011;7480;43.124;25.686;2024-03-02T04:11:59;17.37;;;10.67;;
14776;SDS011;7480;43.124;25.686;2024-03-02T04:14:26;19.23;;;12.07;;
14776;SDS011;7480;43.124;25.686;2024-03-02T04:16:52;21.20;;;12.07;;
14776;SDS011;7480;43.124;25.686;2024-03-02T04:19:19;26.43;;;12.13;;
14776;SDS011;7480;43.124;25.686;2024-03-02T04:21:45;25.83;;;12.30;;
14776;SDS011;7480;43.124;25.686;2024-03-02T04:24:12;20.00;;;12.17;;
14776;SDS011;7480;43.124;25.686;2024-03-02T04:26:38;20.17;;;11.37;;
14776;SDS011;7480;43.124;25.686;2024-03-02T04:29:05;22.87;;;12.97;;
14776;SDS011;7480;43.124;25.686;2024-03-02T04:31:31;25.17;;;11.97;;
14776;SDS011;7480;43.124;25.686;2024-03-02T04:33:58;25.13;;;11.40;;
14776;SDS011;7480;43.124;25.686;2024-03-02T04:36:25;18.63;;;10.90;;
14776;SDS011;7480;43.124;25.686;2024-03-02T04:38:51;18.20;;;10.97;;
14776;SDS011;7480;43.124;25.686;2024-03-02T04:41:18;16.30;;;9.90;;
14776;SDS011;7480;43.124;25.686;2024-03-02T04:43:44;20.70;;;11.27;;
14776;SDS011;7480;43.124;25.686;2024-03-02T04:46:11;22.47;;;12.30;;
14776;SDS011;7480;43.124;25.686;2024-03-02T04:48:38;19.00;;;11.53;;
14776;SDS011;7480;43.124;25.686;2024-03-02T04:51:04;23.57;;;13.67;;
14776;SDS011;7480;43.124;25.686;2024-03-02T04:53:31;25.10;;;13.40;;
14776;SDS011;7480;43.124;25.686;2024-03-02T04:55:57;21.30;;;13.67;;
14776;SDS011;7480;43.124;25.686;2024-03-02T04:58:36;23.00;;;12.67;;
14776;SDS011;7480;43.124;25.686;2024-03-02T05:01:03;22.93;;;13.60;;
14776;SDS011;7480;43.124;25.686;2024-03-02T05:03:30;25.10;;;12.77;;
14776;SDS011;7480;43.124;25.686;2024-03-02T05:05:56;24.07;;;14.43;;
14776;SDS011;7480;43.124;25.686;2024-03-02T05:08:23;23.83;;;12.73;;
14776;SDS011;7480;43.124;25.686;2024-03-02T05:10:49;21.70;;;12.47;;
14776;SDS011;7480;43.124;25.686;2024-03-02T05:13:16;20.07;;;11.73;;
14776;SDS011;7480;43.124;25.686;2024-03-02T05:15:43;22.60;;;11.80;;
14776;SDS011;7480;43.124;25.686;2024-03-02T05:18:10;26.33;;;13.00;;
14776;SDS011;7480;43.124;25.686;2024-03-02T05:20:37;21.30;;;12.40;;
14776;SDS011;7480;43.124;25.686;2024-03-02T05:23:03;26.80;;;17.10;;
14776;SDS011;7480;43.124;25.686;2024-03-02T05:25:30;28.00;;;17.13;;
14776;SDS011;7480;43.124;25.686;2024-03-02T05:27:56;22.17;;;14.87;;
14776;SDS011;7480;43.124;25.686;2024-03-02T05:30:23;27.37;;;14.80;;
14776;SDS011;7480;43.124;25.686;2024-03-02T05:32:52;24.37;;;14.07;;
14776;SDS011;7480;43.124;25.686;2024-03-02T05:35:19;26.97;;;14.10;;
14776;SDS011;7480;43.124;25.686;2024-03-02T05:37:45;22.40;;;13.40;;
14776;SDS011;7480;43.124;25.686;2024-03-02T05:40:12;26.30;;;13.17;;
14776;SDS011;7480;43.124;25.686;2024-03-02T05:42:39;23.23;;;12.97;;
14776;SDS011;7480;43.124;25.686;2024-03-02T05:45:07;21.90;;;13.73;;
14776;SDS011;7480;43.124;25.686;2024-03-02T05:47:34;25.13;;;13.63;;
14776;SDS011;7480;43.124;25.686;2024-03-02T05:50:01;32.70;;;13.67;;
14776;SDS011;7480;43.124;25.686;2024-03-02T05:52:29;23.97;;;14.83;;
14776;SDS011;7480;43.124;25.686;2024-03-02T05:54:55;22.80;;;14.43;;
14776;SDS011;7480;43.124;25.686;2024-03-02T05:57:22;25.50;;;14.93;;
14776;SDS011;7480;43.124;25.686;2024-03-02T06:00:07;27.43;;;14.27;;
14776;SDS011;7480;43.124;25.686;2024-03-02T06:02:34;28.37;;;16.00;;
14776;SDS011;7480;43.124;25.686;2024-03-02T06:05:05;18.13;;;12.77;;
14776;SDS011;7480;43.124;25.686;2024-03-02T06:07:33;26.70;;;14.00;;
14776;SDS011;7480;43.124;25.686;2024-03-02T06:09:59;27.40;;;16.10;;
14776;SDS011;7480;43.124;25.686;2024-03-02T06:12:26;25.07;;;15.10;;
14776;SDS011;7480;43.124;25.686;2024-03-02T06:14:53;25.17;;;13.50;;
14776;SDS011;7480;43.124;25.686;2024-03-02T06:17:19;21.20;;;12.27;;
14776;SDS011;7480;43.124;25.686;2024-03-02T06:19:46;28.53;;;18.00;;
14776;SDS011;7480;43.124;25.686;2024-03-02T06:22:12;39.00;;;21.53;;
14776;SDS011;7480;43.124;25.686;2024-03-02T06:24:39;36.00;;;20.30;;
14776;SDS011;7480;43.124;25.686;2024-03-02T06:27:05;33.97;;;19.93;;
14776;SDS011;7480;43.124;25.686;2024-03-02T06:29:32;33.37;;;19.90;;
14776;SDS011;7480;43.124;25.686;2024-03-02T06:31:59;35.13;;;20.37;;
14776;SDS011;7480;43.124;25.686;2024-03-02T06:34:26;38.10;;;19.27;;
14776;SDS011;7480;43.124;25.686;2024-03-02T06:36:53;37.57;;;20.20;;
14776;SDS011;7480;43.124;25.686;2024-03-02T06:39:19;40.97;;;23.07;;
14776;SDS011;7480;43.124;25.686;2024-03-02T06:41:46;38.23;;;21.67;;
14776;SDS011;7480;43.124;25.686;2024-03-02T06:44:13;32.67;;;18.63;;
14776;SDS011;7480;43.124;25.686;2024-03-02T06:46:40;36.90;;;20.00;;
14776;SDS011;7480;43.124;25.686;2024-03-02T06:49:07;34.50;;;19.13;;
14776;SDS011;7480;43.124;25.686;2024-03-02T06:51:33;32.50;;;18.10;;
14776;SDS011;7480;43.124;25.686;2024-03-02T06:54:00;33.77;;;18.87;;
14776;SDS011;7480;43.124;25.686;2024-03-02T06:56:27;35.03;;;20.48;;
14776;SDS011;7480;43.124;25.686;2024-03-02T06:58:53;31.20;;;18.33;;
14776;SDS011;7480;43.124;25.686;2024-03-02T07:01:20;32.40;;;18.23;;
14776;SDS011;7480;43.124;25.686;2024-03-02T07:03:51;38.63;;;21.73;;
14776;SDS011;7480;43.124;25.686;2024-03-02T07:06:17;42.38;;;24.17;;
14776;SDS011;7480;43.124;25.686;2024-03-02T07:08:44;40.87;;;22.47;;
14776;SDS011;7480;43.124;25.686;2024-03-02T07:11:10;32.23;;;20.47;;
14776;SDS011;7480;43.124;25.686;2024-03-02T07:13:37;29.20;;;18.97;;
14776;SDS011;7480;43.124;25.686;2024-03-02T07:16:04;35.20;;;19.77;;
14776;SDS011;7480;43.124;25.686;2024-03-02T07:18:30;38.20;;;21.43;;
14776;SDS011;7480;43.124;25.686;2024-03-02T07:20:57;30.27;;;18.17;;
14776;SDS011;7480;43.124;25.686;2024-03-02T07:23:25;31.27;;;17.53;;
14776;SDS011;7480;43.124;25.686;2024-03-02T07:25:53;31.47;;;19.20;;
14776;SDS011;7480;43.124;25.686;2024-03-02T07:28:25;40.77;;;20.43;;
14776;SDS011;7480;43.124;25.686;2024-03-02T07:31:01;37.20;;;19.43;;
14776;SDS011;7480;43.124;25.686;2024-03-02T07:33:28;39.00;;;24.47;;
14776;SDS011;7480;43.124;25.686;2024-03-02T07:35:55;39.23;;;20.73;;
14776;SDS011;7480;43.124;25.686;2024-03-02T07:38:22;40.83;;;22.03;;
14776;SDS011;7480;43.124;25.686;2024-03-02T07:40:49;38.37;;;21.37;;
14776;SDS011;7480;43.124;25.686;2024-03-02T07:43:19;34.27;;;19.60;;
14776;SDS011;7480;43.124;25.686;2024-03-02T07:45:46;32.03;;;19.60;;
14776;SDS011;7480;43.124;25.686;2024-03-02T07:48:12;33.87;;;19.73;;
14776;SDS011;7480;43.124;25.686;2024-03-02T07:50:39;35.80;;;20.37;;
14776;SDS011;7480;43.124;25.686;2024-03-02T07:53:06;39.30;;;20.47;;
14776;SDS011;7480;43.124;25.686;2024-03-02T07:55:34;35.93;;;21.13;;
14776;SDS011;7480;43.124;25.686;2024-03-02T07:58:01;34.83;;;20.40;;
14776;SDS011;7480;43.124;25.686;2024-03-02T08:00:28;31.93;;;19.07;;
14776;SDS011;7480;43.124;25.686;2024-03-02T08:02:55;35.97;;;20.87;;
14776;SDS011;7480;43.124;25.686;2024-03-02T08:05:22;35.20;;;19.57;;
14776;SDS011;7480;43.124;25.686;2024-03-02T08:07:49;37.80;;;20.83;;
14776;SDS011;7480;43.124;25.686;2024-03-02T08:10:19;38.43;;;20.87;;
14776;SDS011;7480;43.124;25.686;2024-03-02T08:12:46;37.33;;;21.00;;
14776;SDS011;7480;43.124;25.686;2024-03-02T08:15:12;35.67;;;20.33;;
14776;SDS011;7480;43.124;25.686;2024-03-02T08:17:39;33.57;;;19.03;;
14776;SDS011;7480;43.124;25.686;2024-03-02T08:20:15;27.20;;;17.37;;
14776;SDS011;7480;43.124;25.686;2024-03-02T08:22:41;29.13;;;16.77;;
14776;SDS011;7480;43.124;25.686;2024-03-02T08:25:08;36.40;;;18.80;;
14776;SDS011;7480;43.124;25.686;2024-03-02T08:27:36;40.87;;;21.10;;
14776;SDS011;7480;43.124;25.686;2024-03-02T08:30:03;30.23;;;16.27;;
14776;SDS011;7480;43.124;25.686;2024-03-02T08:32:33;23.10;;;15.17;;
14776;SDS011;7480;43.124;25.686;2024-03-02T08:35:00;26.63;;;16.00;;
14776;SDS011;7480;43.124;25.686;2024-03-02T08:37:27;32.57;;;18.23;;
14776;SDS011;7480;43.124;25.686;2024-03-02T08:39:53;34.67;;;18.77;;
14776;SDS011;7480;43.124;25.686;2024-03-02T08:42:20;30.30;;;17.43;;
14776;SDS011;7480;43.124;25.686;2024-03-02T08:44:47;26.17;;;15.97;;
14776;SDS011;7480;43.124;25.686;2024-03-02T08:47:14;37.13;;;18.93;;
14776;SDS011;7480;43.124;25.686;2024-03-02T08:49:41;37.67;;;16.97;;
14776;SDS011;7480;43.124;25.686;2024-03-02T08:52:07;32.30;;;18.93;;
14776;SDS011;7480;43.124;25.686;2024-03-02T08:54:35;38.20;;;19.77;;
14776;SDS011;7480;43.124;25.686;2024-03-02T08:57:02;29.60;;;17.17;;
14776;SDS011;7480;43.124;25.686;2024-03-02T08:59:29;24.60;;;16.23;;
14776;SDS011;7480;43.124;25.686;2024-03-02T09:01:55;27.87;;;17.07;;
14776;SDS011;7480;43.124;25.686;2024-03-02T09:04:22;35.27;;;20.17;;
14776;SDS011;7480;43.124;25.686;2024-03-02T09:06:52;29.13;;;17.40;;
14776;SDS011;7480;43.124;25.686;2024-03-02T09:09:19;30.37;;;18.33;;
14776;SDS011;7480;43.124;25.686;2024-03-02T09:11:46;28.27;;;16.33;;
14776;SDS011;7480;43.124;25.686;2024-03-02T09:14:13;27.60;;;16.03;;
14776;SDS011;7480;43.124;25.686;2024-03-02T09:16:41;26.03;;;15.17;;
14776;SDS011;7480;43.124;25.686;2024-03-02T09:19:08;29.47;;;15.90;;
14776;SDS011;7480;43.124;25.686;2024-03-02T09:21:36;31.20;;;16.10;;
14776;SDS011;7480;43.124;25.686;2024-03-02T09:24:02;24.02;;;14.22;;
14776;SDS011;7480;43.124;25.686;2024-03-02T09:26:30;26.13;;;15.33;;
14776;SDS011;7480;43.124;25.686;2024-03-02T09:28:56;24.40;;;13.80;;
14776;SDS011;7480;43.124;25.686;2024-03-02T09:31:23;27.90;;;15.37;;
14776;SDS011;7480;43.124;25.686;2024-03-02T09:33:49;25.80;;;14.80;;
14776;SDS011;7480;43.124;25.686;2024-03-02T09:36:19;23.57;;;14.13;;
14776;SDS011;7480;43.124;25.686;2024-03-02T09:38:46;27.37;;;15.37;;
14776;SDS011;7480;43.124;25.686;2024-03-02T09:41:14;24.97;;;14.63;;
14776;SDS011;7480;43.124;25.686;2024-03-02T09:43:40;26.40;;;15.23;;
14776;SDS011;7480;43.124;25.686;2024-03-02T09:46:09;28.43;;;16.67;;
14776;SDS011;7480;43.124;25.686;2024-03-02T09:48:35;24.77;;;13.53;;
14776;SDS011;7480;43.124;25.686;2024-03-02T09:51:02;23.23;;;14.33;;
14776;SDS011;7480;43.124;25.686;2024-03-02T09:53:31;22.73;;;13.70;;
14776;SDS011;7480;43.124;25.686;2024-03-02T09:55:58;21.83;;;14.27;;
14776;SDS011;7480;43.124;25.686;2024-03-02T09:58:25;22.03;;;13.90;;
14776;SDS011;7480;43.124;25.686;2024-03-02T10:00:52;26.50;;;14.13;;
14776;SDS011;7480;43.124;25.686;2024-03-02T10:03:18;24.40;;;13.90;;
14776;SDS011;7480;43.124;25.686;2024-03-02T10:05:45;19.63;;;13.20;;
14776;SDS011;7480;43.124;25.686;2024-03-02T10:08:12;22.47;;;12.90;;
14776;SDS011;7480;43.124;25.686;2024-03-02T10:10:39;25.27;;;14.83;;
14776;SDS011;7480;43.124;25.686;2024-03-02T10:13:10;24.53;;;14.27;;
14776;SDS011;7480;43.124;25.686;2024-03-02T10:15:37;21.30;;;12.50;;
14776;SDS011;7480;43.124;25.686;2024-03-02T10:18:04;22.23;;;12.00;;
14776;SDS011;7480;43.124;25.686;2024-03-02T10:20:31;25.83;;;14.07;;
14776;SDS011;7480;43.124;25.686;2024-03-02T10:23:12;22.37;;;13.60;;
14776;SDS011;7480;43.124;25.686;2024-03-02T10:25:40;24.60;;;14.87;;
14776;SDS011;7480;43.124;25.686;2024-03-02T10:28:20;25.47;;;14.93;;
14776;SDS011;7480;43.124;25.686;2024-03-02T10:30:47;23.70;;;12.80;;
14776;SDS011;7480;43.124;25.686;2024-03-02T10:33:14;28.13;;;14.17;;
14776;SDS011;7480;43.124;25.686;2024-03-02T10:35:41;23.40;;;14.70;;
14776;SDS011;7480;43.124;25.686;2024-03-02T10:38:07;23.33;;;12.93;;
14776;SDS011;7480;43.124;25.686;2024-03-02T10:40:34;33.50;;;16.57;;
14776;SDS011;7480;43.124;25.686;2024-03-02T10:43:01;21.50;;;12.27;;
14776;SDS011;7480;43.124;25.686;2024-03-02T10:45:31;26.50;;;13.50;;
14776;SDS011;7480;43.124;25.686;2024-03-02T10:47:58;24.70;;;12.70;;
14776;SDS011;7480;43.124;25.686;2024-03-02T10:50:24;24.07;;;13.90;;
14776;SDS011;7480;43.124;25.686;2024-03-02T10:52:51;23.43;;;13.53;;
14776;SDS011;7480;43.124;25.686;2024-03-02T10:55:17;20.90;;;12.77;;
14776;SDS011;7480;43.124;25.686;2024-03-02T10:57:52;21.00;;;11.50;;
14776;SDS011;7480;43.124;25.686;2024-03-02T11:00:24;21.30;;;12.00;;
14776;SDS011;7480;43.124;25.686;2024-03-02T11:02:57;24.03;;;13.37;;
14776;SDS011;7480;43.124;25.686;2024-03-02T11:05:27;22.63;;;14.63;;
14776;SDS011;7480;43.124;25.686;2024-03-02T11:07:57;21.57;;;11.93;;
14776;SDS011;7480;43.124;25.686;2024-03-02T11:10:25;24.30;;;12.80;;
14776;SDS011;7480;43.124;25.686;2024-03-02T11:12:55;26.23;;;15.53;;
14776;SDS011;7480;43.124;25.686;2024-03-02T11:15:24;29.33;;;15.37;;
14776;SDS011;7480;43.124;25.686;2024-03-02T11:17:52;31.50;;;18.67;;
14776;SDS011;7480;43.124;25.686;2024-03-02T11:20:19;26.33;;;16.30;;
14776;SDS011;7480;43.124;25.686;2024-03-02T11:22:46;22.23;;;13.20;;
14776;SDS011;7480;43.124;25.686;2024-03-02T11:25:26;26.40;;;14.33;;
14776;SDS011;7480;43.124;25.686;2024-03-02T11:33:00;19.67;;;11.77;;
14776;SDS011;7480;43.124;25.686;2024-03-02T11:35:27;23.67;;;13.97;;
14776;SDS011;7480;43.124;25.686;2024-03-02T11:37:54;18.37;;;11.37;;
14776;SDS011;7480;43.124;25.686;2024-03-02T11:40:22;24.90;;;13.50;;
14776;SDS011;7480;43.124;25.686;2024-03-02T11:42:48;25.63;;;12.63;;
14776;SDS011;7480;43.124;25.686;2024-03-02T11:45:25;28.07;;;13.90;;
14776;SDS011;7480;43.124;25.686;2024-03-02T11:47:53;24.30;;;13.57;;
14776;SDS011;7480;43.124;25.686;2024-03-02T11:52:56;20.37;;;13.20;;
14776;SDS011;7480;43.124;25.686;2024-03-02T11:55:27;22.90;;;12.17;;
14776;SDS011;7480;43.124;25.686;2024-03-02T11:57:55;22.93;;;13.90;;
14776;SDS011;7480;43.124;25.686;2024-03-02T12:00:22;23.33;;;12.30;;
14776;SDS011;7480;43.124;25.686;2024-03-02T12:05:27;20.60;;;12.27;;
14776;SDS011;7480;43.124;25.686;2024-03-02T12:07:58;21.57;;;12.10;;
14776;SDS011;7480;43.124;25.686;2024-03-02T12:10:25;23.97;;;10.43;;
14776;SDS011;7480;43.124;25.686;2024-03-02T12:12:55;23.43;;;12.57;;
14776;SDS011;7480;43.124;25.686;2024-03-02T12:15:28;20.53;;;11.57;;
14776;SDS011;7480;43.124;25.686;2024-03-02T12:17:55;25.87;;;13.77;;
14776;SDS011;7480;43.124;25.686;2024-03-02T12:20:23;23.60;;;13.27;;
14776;SDS011;7480;43.124;25.686;2024-03-02T12:22:51;28.33;;;15.13;;
14776;SDS011;7480;43.124;25.686;2024-03-02T12:25:22;22.50;;;12.43;;
14776;SDS011;7480;43.124;25.686;2024-03-02T12:27:50;23.83;;;14.77;;
14776;SDS011;7480;43.124;25.686;2024-03-02T12:30:17;24.97;;;15.60;;
14776;SDS011;7480;43.124;25.686;2024-03-02T12:32:44;23.87;;;13.43;;
14776;SDS011;7480;43.124;25.686;2024-03-02T12:35:11;17.50;;;11.70;;
14776;SDS011;7480;43.124;25.686;2024-03-02T12:37:44;16.37;;;10.73;;
14776;SDS011;7480;43.124;25.686;2024-03-02T12:40:11;26.73;;;12.63;;
14776;SDS011;7480;43.124;25.686;2024-03-02T12:42:39;17.53;;;11.23;;
14776;SDS011;7480;43.124;25.686;2024-03-02T12:45:06;32.90;;;15.90;;
14776;SDS011;7480;43.124;25.686;2024-03-02T12:47:41;27.19;;;15.31;;
14776;SDS011;7480;43.124;25.686;2024-03-02T12:50:08;24.90;;;14.53;;
14776;SDS011;7480;43.124;25.686;2024-03-02T12:52:35;17.97;;;11.93;;
14776;SDS011;7480;43.124;25.686;2024-03-02T12:55:03;23.80;;;11.87;;
14776;SDS011;7480;43.124;25.686;2024-03-02T12:57:31;21.87;;;12.10;;
14776;SDS011;7480;43.124;25.686;2024-03-02T13:00:17;21.24;;;12.89;;
14776;SDS011;7480;43.124;25.686;2024-03-02T13:02:45;19.90;;;11.50;;
14776;SDS011;7480;43.124;25.686;2024-03-02T13:05:12;21.97;;;10.77;;
14776;SDS011;7480;43.124;25.686;2024-03-02T13:07:39;22.03;;;11.67;;
14776;SDS011;7480;43.124;25.686;2024-03-02T13:10:07;20.57;;;11.73;;
14776;SDS011;7480;43.124;25.686;2024-03-02T13:12:37;24.10;;;13.23;;
14776;SDS011;7480;43.124;25.686;2024-03-02T13:15:04;25.87;;;11.73;;
14776;SDS011;7480;43.124;25.686;2024-03-02T13:17:34;25.77;;;12.67;;
14776;SDS011;7480;43.124;25.686;2024-03-02T13:20:04;20.67;;;11.43;;
14776;SDS011;7480;43.124;25.686;2024-03-02T13:22:34;21.40;;;11.60;;
14776;SDS011;7480;43.124;25.686;2024-03-02T13:25:01;23.20;;;12.63;;
14776;SDS011;7480;43.124;25.686;2024-03-02T13:27:31;27.23;;;13.07;;
14776;SDS011;7480;43.124;25.686;2024-03-02T13:29:58;20.40;;;10.83;;
14776;SDS011;7480;43.124;25.686;2024-03-02T13:32:25;21.67;;;12.67;;
14776;SDS011;7480;43.124;25.686;2024-03-02T13:34:52;18.40;;;11.77;;
14776;SDS011;7480;43.124;25.686;2024-03-02T13:37:19;19.67;;;12.17;;
14776;SDS011;7480;43.124;25.686;2024-03-02T13:39:46;22.73;;;11.87;;
14776;SDS011;7480;43.124;25.686;2024-03-02T13:42:12;21.13;;;13.13;;
14776;SDS011;7480;43.124;25.686;2024-03-02T13:44:44;25.97;;;14.07;;
14776;SDS011;7480;43.124;25.686;2024-03-02T13:47:16;22.30;;;11.80;;
14776;SDS011;7480;43.124;25.686;2024-03-02T13:49:42;20.80;;;12.20;;
14776;SDS011;7480;43.124;25.686;2024-03-02T13:52:13;23.73;;;11.93;;
14776;SDS011;7480;43.124;25.686;2024-03-02T13:54:41;26.30;;;13.73;;
14776;SDS011;7480;43.124;25.686;2024-03-02T13:57:08;57.87;;;22.57;;
14776;SDS011;7480;43.124;25.686;2024-03-02T13:59:35;24.37;;;13.47;;
14776;SDS011;7480;43.124;25.686;2024-03-02T14:02:02;43.40;;;18.57;;
14776;SDS011;7480;43.124;25.686;2024-03-02T14:04:35;39.27;;;18.00;;
14776;SDS011;7480;43.124;25.686;2024-03-02T14:07:03;21.67;;;11.40;;
14776;SDS011;7480;43.124;25.686;2024-03-02T14:09:29;32.93;;;15.80;;
14776;SDS011;7480;43.124;25.686;2024-03-02T14:11:56;39.40;;;17.20;;
14776;SDS011;7480;43.124;25.686;2024-03-02T14:14:23;36.57;;;16.30;;
14776;SDS011;7480;43.124;25.686;2024-03-02T14:16:51;27.00;;;14.33;;
14776;SDS011;7480;43.124;25.686;2024-03-02T14:19:17;22.67;;;13.73;;
14776;SDS011;7480;43.124;25.686;2024-03-02T14:21:44;20.57;;;12.53;;
14776;SDS011;7480;43.124;25.686;2024-03-02T14:24:11;22.73;;;14.33;;
14776;SDS011;7480;43.124;25.686;2024-03-02T14:26:37;30.37;;;13.70;;
14776;SDS011;7480;43.124;25.686;2024-03-02T14:29:04;23.40;;;12.60;;
14776;SDS011;7480;43.124;25.686;2024-03-02T14:31:31;21.00;;;12.97;;
14776;SDS011;7480;43.124;25.686;2024-03-02T14:33:58;20.77;;;14.17;;
14776;SDS011;7480;43.124;25.686;2024-03-02T14:36:26;21.33;;;12.73;;